createdAt,value
2023-03-23T00:11:36.454Z,9.90
2023-03-23T00:23:34.181Z,12.40
2023-03-23T00:35:34.681Z,11.80
2023-03-23T00:47:37.801Z,14.60
2023-03-23T00:59:35.532Z,14.40
2023-03-23T01:11:35.973Z,11.10
2023-03-23T01:23:36.459Z,10.50
2023-03-23T01:35:39.325Z,13.60
2023-03-23T01:47:37.507Z,13.40
2023-03-23T01:59:38.013Z,14.20
2023-03-23T02:11:38.295Z,16.90
2023-03-23T02:23:38.716Z,20.40
2023-03-23T02:35:39.325Z,17.20
2023-03-23T02:47:39.696Z,17.90
2023-03-23T02:59:40.079Z,20.10
2023-03-23T03:11:40.533Z,16.10
2023-03-23T03:23:40.955Z,14.10
2023-03-23T03:35:41.568Z,17.90
2023-03-23T03:47:41.869Z,16.50
2023-03-23T03:59:42.328Z,17.50
2023-03-23T04:11:42.811Z,18.90
2023-03-23T04:23:43.221Z,26.00
2023-03-23T04:35:44.360Z,21.30
2023-03-23T04:47:46.443Z,21.80
2023-03-23T04:59:46.826Z,19.20
2023-03-23T05:11:45.036Z,20.90
2023-03-23T05:23:45.493Z,23.90
2023-03-23T05:35:46.372Z,27.10
2023-03-23T05:47:46.386Z,26.10
2023-03-23T05:59:46.882Z,20.20
2023-03-23T06:11:47.315Z,19.50
2023-03-23T06:23:47.750Z,18.80
2023-03-23T06:35:48.260Z,16.80
2023-03-23T06:47:48.695Z,16.20
2023-03-23T06:59:49.267Z,23.40
2023-03-23T07:11:49.569Z,13.60
2023-03-23T07:23:50.027Z,20.70
2023-03-23T07:35:50.485Z,15.80
2023-03-23T07:47:50.938Z,19.30
2023-03-23T07:59:51.373Z,12.60
2023-03-23T08:11:51.842Z,18.20
2023-03-23T08:23:52.301Z,9.90
2023-03-23T08:35:52.796Z,12.80
2023-03-23T08:47:53.189Z,9.60
2023-03-23T08:59:53.652Z,10.30
2023-03-23T09:11:54.074Z,7.40
2023-03-23T09:23:54.618Z,10.30
2023-03-23T09:35:55.056Z,8.50
2023-03-23T09:47:55.488Z,8.30
2023-03-23T09:59:58.242Z,8.30
2023-03-23T10:11:56.372Z,9.60
2023-03-23T10:23:56.845Z,11.20
2023-03-23T10:35:59.563Z,8.00
2023-03-23T10:47:59.980Z,7.50
2023-03-23T11:00:00.525Z,5.70
2023-03-23T11:12:02.137Z,4.90
2023-03-23T11:24:09.336Z,6.90
2023-03-23T11:35:59.616Z,8.00
2023-03-23T11:48:00.014Z,9.30
2023-03-23T12:00:00.506Z,8.80
2023-03-23T12:12:00.960Z,7.30
2023-03-23T12:24:03.177Z,9.70
2023-03-23T12:36:01.924Z,9.50
2023-03-23T12:48:02.318Z,10.70
2023-03-23T13:00:02.785Z,12.50
2023-03-23T13:12:03.229Z,10.10
2023-03-23T13:24:03.738Z,15.10
2023-03-23T13:36:06.073Z,14.00
2023-03-23T13:48:04.597Z,14.60
2023-03-23T14:00:05.036Z,13.10
2023-03-23T14:12:05.542Z,16.40
2023-03-23T14:24:05.924Z,13.80
2023-03-23T14:36:06.503Z,15.60
2023-03-23T14:48:06.846Z,11.60
2023-03-23T15:00:07.323Z,8.80
2023-03-23T15:12:07.801Z,10.20
2023-03-23T15:24:08.262Z,9.20
2023-03-23T15:36:08.720Z,14.50
2023-03-23T15:48:09.173Z,12.50
2023-03-23T16:00:09.621Z,13.60
2023-03-23T16:12:10.062Z,12.90
2023-03-23T16:24:10.506Z,14.50
2023-03-23T16:36:11.681Z,8.20
2023-03-23T16:48:11.461Z,8.70
2023-03-23T17:00:11.864Z,29.10
2023-03-23T17:12:12.336Z,20.60
2023-03-23T17:24:12.824Z,14.90
2023-03-23T17:36:13.361Z,17.80
2023-03-23T17:48:13.756Z,21.60
2023-03-23T18:00:16.484Z,18.80
2023-03-23T18:12:14.633Z,12.40
2023-03-23T18:24:15.060Z,13.50
2023-03-23T18:36:15.536Z,16.10
2023-03-23T18:48:15.971Z,26.30
2023-03-23T19:00:16.437Z,26.40
2023-03-23T19:12:16.871Z,23.50
2023-03-23T19:24:17.495Z,24.80
2023-03-23T19:36:18.446Z,26.70
2023-03-23T19:48:18.290Z,27.70
2023-03-23T20:00:18.677Z,33.30
2023-03-23T20:12:19.190Z,35.40
2023-03-23T20:24:19.607Z,35.60
2023-03-23T20:36:20.142Z,32.50
2023-03-23T20:48:23.331Z,35.90
2023-03-23T21:00:21.433Z,31.70
2023-03-23T21:12:23.748Z,34.80
2023-03-23T21:24:22.053Z,32.40
2023-03-23T21:36:24.649Z,32.80
2023-03-23T21:48:22.781Z,42.50
2023-03-23T22:00:23.221Z,41.00
2023-03-23T22:12:23.704Z,40.60
2023-03-23T22:24:24.119Z,47.10
2023-03-23T22:36:24.654Z,52.70
2023-03-23T22:48:25.025Z,40.70
2023-03-23T23:00:25.521Z,48.60
2023-03-23T23:12:25.939Z,45.60
2023-03-23T23:24:26.450Z,45.20
2023-03-23T23:36:26.867Z,42.90
2023-03-23T23:48:27.352Z,35.60
